sensor_id;sensor_type;location;lat;lon;timestamp;P1;durP1;ratioP1;P2;durP2;ratioP2
5801;SDS011;2927;49.366;8.530;2023-06-26T00:00:02;9.07;;;6.60;;
5801;SDS011;2927;49.366;8.530;2023-06-26T00:02:30;8.40;;;7.37;;
5801;SDS011;2927;49.366;8.530;2023-06-26T00:04:57;10.43;;;6.97;;
5801;SDS011;2927;49.366;8.530;2023-06-26T00:07:23;10.33;;;6.40;;
5801;SDS011;2927;49.366;8.530;2023-06-26T00:09:49;12.13;;;6.20;;
5801;SDS011;2927;49.366;8.530;2023-06-26T00:12:14;15.13;;;7.53;;
5801;SDS011;2927;49.366;8.530;2023-06-26T00:14:40;11.17;;;7.57;;
5801;SDS011;2927;49.366;8.530;2023-06-26T00:17:05;7.60;;;6.73;;
5801;SDS011;2927;49.366;8.530;2023-06-26T00:19:31;18.80;;;7.50;;
5801;SDS011;2927;49.366;8.530;2023-06-26T00:21:56;11.20;;;7.30;;
5801;SDS011;2927;49.366;8.530;2023-06-26T00:24:22;11.13;;;6.93;;
5801;SDS011;2927;49.366;8.530;2023-06-26T00:26:47;9.70;;;7.43;;
5801;SDS011;2927;49.366;8.530;2023-06-26T00:29:13;8.80;;;7.33;;
5801;SDS011;2927;49.366;8.530;2023-06-26T00:31:39;15.00;;;7.80;;
5801;SDS011;2927;49.366;8.530;2023-06-26T00:34:05;8.03;;;6.47;;
5801;SDS011;2927;49.366;8.530;2023-06-26T00:36:31;9.57;;;6.97;;
5801;SDS011;2927;49.366;8.530;2023-06-26T00:38:56;9.43;;;7.40;;
5801;SDS011;2927;49.366;8.530;2023-06-26T00:41:22;13.30;;;7.43;;
5801;SDS011;2927;49.366;8.530;2023-06-26T00:43:48;9.30;;;8.10;;
5801;SDS011;2927;49.366;8.530;2023-06-26T00:46:14;12.83;;;8.20;;
5801;SDS011;2927;49.366;8.530;2023-06-26T00:48:41;9.00;;;7.23;;
5801;SDS011;2927;49.366;8.530;2023-06-26T00:51:08;9.97;;;7.90;;
5801;SDS011;2927;49.366;8.530;2023-06-26T00:53:34;8.77;;;7.40;;
5801;SDS011;2927;49.366;8.530;2023-06-26T00:56:00;10.70;;;7.20;;
5801;SDS011;2927;49.366;8.530;2023-06-26T00:58:27;17.07;;;7.27;;
5801;SDS011;2927;49.366;8.530;2023-06-26T01:00:53;8.43;;;7.57;;
5801;SDS011;2927;49.366;8.530;2023-06-26T01:03:22;11.33;;;7.80;;
5801;SDS011;2927;49.366;8.530;2023-06-26T01:05:49;10.73;;;7.07;;
5801;SDS011;2927;49.366;8.530;2023-06-26T01:08:16;10.50;;;6.87;;
5801;SDS011;2927;49.366;8.530;2023-06-26T01:10:43;8.70;;;7.70;;
5801;SDS011;2927;49.366;8.530;2023-06-26T01:13:09;9.90;;;7.27;;
5801;SDS011;2927;49.366;8.530;2023-06-26T01:28:27;13.17;;;8.20;;
5801;SDS011;2927;49.366;8.530;2023-06-26T01:30:54;12.40;;;7.43;;
5801;SDS011;2927;49.366;8.530;2023-06-26T01:33:20;10.20;;;7.80;;
5801;SDS011;2927;49.366;8.530;2023-06-26T01:35:46;8.97;;;7.27;;
5801;SDS011;2927;49.366;8.530;2023-06-26T01:38:13;15.40;;;7.50;;
5801;SDS011;2927;49.366;8.530;2023-06-26T01:40:40;9.50;;;8.37;;
5801;SDS011;2927;49.366;8.530;2023-06-26T01:43:06;11.10;;;7.73;;
5801;SDS011;2927;49.366;8.530;2023-06-26T01:45:40;21.23;;;8.57;;
5801;SDS011;2927;49.366;8.530;2023-06-26T01:48:07;11.60;;;7.40;;
5801;SDS011;2927;49.366;8.530;2023-06-26T01:50:37;11.77;;;7.63;;
5801;SDS011;2927;49.366;8.530;2023-06-26T01:55:52;9.53;;;7.03;;
5801;SDS011;2927;49.366;8.530;2023-06-26T01:58:22;11.37;;;7.43;;
5801;SDS011;2927;49.366;8.530;2023-06-26T02:00:50;10.40;;;7.73;;
5801;SDS011;2927;49.366;8.530;2023-06-26T02:03:15;10.53;;;8.20;;
5801;SDS011;2927;49.366;8.530;2023-06-26T02:05:41;8.70;;;6.80;;
5801;SDS011;2927;49.366;8.530;2023-06-26T02:08:08;10.67;;;7.27;;
5801;SDS011;2927;49.366;8.530;2023-06-26T02:10:34;11.40;;;7.30;;
5801;SDS011;2927;49.366;8.530;2023-06-26T02:13:00;19.60;;;8.10;;
5801;SDS011;2927;49.366;8.530;2023-06-26T02:15:25;12.17;;;7.07;;
5801;SDS011;2927;49.366;8.530;2023-06-26T02:17:51;11.97;;;7.40;;
5801;SDS011;2927;49.366;8.530;2023-06-26T02:20:16;10.93;;;7.50;;
5801;SDS011;2927;49.366;8.530;2023-06-26T02:22:42;13.77;;;8.33;;
5801;SDS011;2927;49.366;8.530;2023-06-26T02:25:08;10.80;;;7.27;;
5801;SDS011;2927;49.366;8.530;2023-06-26T02:27:35;9.17;;;7.30;;
5801;SDS011;2927;49.366;8.530;2023-06-26T02:30:00;11.30;;;7.87;;
5801;SDS011;2927;49.366;8.530;2023-06-26T02:32:26;12.40;;;6.50;;
5801;SDS011;2927;49.366;8.530;2023-06-26T02:34:51;23.13;;;8.90;;
5801;SDS011;2927;49.366;8.530;2023-06-26T02:37:17;9.60;;;7.93;;
5801;SDS011;2927;49.366;8.530;2023-06-26T02:39:43;8.87;;;7.07;;
5801;SDS011;2927;49.366;8.530;2023-06-26T02:42:08;10.63;;;7.40;;
5801;SDS011;2927;49.366;8.530;2023-06-26T02:44:34;9.33;;;7.43;;
5801;SDS011;2927;49.366;8.530;2023-06-26T02:47:00;7.77;;;6.80;;
5801;SDS011;2927;49.366;8.530;2023-06-26T02:49:25;12.00;;;7.20;;
5801;SDS011;2927;49.366;8.530;2023-06-26T02:51:51;9.87;;;7.60;;
5801;SDS011;2927;49.366;8.530;2023-06-26T02:54:16;12.53;;;6.77;;
5801;SDS011;2927;49.366;8.530;2023-06-26T02:56:42;12.77;;;7.00;;
5801;SDS011;2927;49.366;8.530;2023-06-26T02:59:07;13.77;;;7.60;;
5801;SDS011;2927;49.366;8.530;2023-06-26T03:01:33;9.70;;;6.40;;
5801;SDS011;2927;49.366;8.530;2023-06-26T03:03:58;9.20;;;7.00;;
5801;SDS011;2927;49.366;8.530;2023-06-26T03:06:25;9.70;;;7.50;;
5801;SDS011;2927;49.366;8.530;2023-06-26T03:08:51;9.17;;;7.40;;
5801;SDS011;2927;49.366;8.530;2023-06-26T03:11:17;10.43;;;6.90;;
5801;SDS011;2927;49.366;8.530;2023-06-26T03:13:42;10.67;;;7.30;;
5801;SDS011;2927;49.366;8.530;2023-06-26T03:16:08;7.70;;;6.70;;
5801;SDS011;2927;49.366;8.530;2023-06-26T03:18:33;14.27;;;7.80;;
5801;SDS011;2927;49.366;8.530;2023-06-26T03:20:59;11.73;;;7.50;;
5801;SDS011;2927;49.366;8.530;2023-06-26T03:23:25;7.97;;;6.73;;
5801;SDS011;2927;49.366;8.530;2023-06-26T03:25:50;9.23;;;6.80;;
5801;SDS011;2927;49.366;8.530;2023-06-26T03:28:16;7.93;;;7.10;;
5801;SDS011;2927;49.366;8.530;2023-06-26T03:30:42;9.10;;;6.73;;
5801;SDS011;2927;49.366;8.530;2023-06-26T03:33:08;11.37;;;7.40;;
5801;SDS011;2927;49.366;8.530;2023-06-26T03:35:34;10.93;;;7.00;;
5801;SDS011;2927;49.366;8.530;2023-06-26T03:38:00;8.57;;;6.77;;
5801;SDS011;2927;49.366;8.530;2023-06-26T03:40:26;8.90;;;7.00;;
5801;SDS011;2927;49.366;8.530;2023-06-26T03:42:52;9.97;;;7.13;;
5801;SDS011;2927;49.366;8.530;2023-06-26T03:45:17;9.13;;;6.87;;
5801;SDS011;2927;49.366;8.530;2023-06-26T03:47:44;10.73;;;7.30;;
5801;SDS011;2927;49.366;8.530;2023-06-26T03:50:12;18.00;;;7.87;;
5801;SDS011;2927;49.366;8.530;2023-06-26T03:52:37;11.73;;;7.00;;
5801;SDS011;2927;49.366;8.530;2023-06-26T03:55:03;9.53;;;8.00;;
5801;SDS011;2927;49.366;8.530;2023-06-26T03:57:29;9.50;;;7.23;;
5801;SDS011;2927;49.366;8.530;2023-06-26T03:59:54;14.90;;;7.63;;
5801;SDS011;2927;49.366;8.530;2023-06-26T04:02:20;8.60;;;6.87;;
5801;SDS011;2927;49.366;8.530;2023-06-26T04:04:45;11.33;;;8.93;;
5801;SDS011;2927;49.366;8.530;2023-06-26T04:07:11;11.70;;;7.90;;
5801;SDS011;2927;49.366;8.530;2023-06-26T04:09:36;10.70;;;7.60;;
5801;SDS011;2927;49.366;8.530;2023-06-26T04:12:02;9.63;;;6.97;;
5801;SDS011;2927;49.366;8.530;2023-06-26T04:14:28;9.33;;;7.40;;
5801;SDS011;2927;49.366;8.530;2023-06-26T04:16:53;12.93;;;7.20;;
5801;SDS011;2927;49.366;8.530;2023-06-26T04:19:19;13.77;;;7.70;;
5801;SDS011;2927;49.366;8.530;2023-06-26T04:21:45;9.90;;;7.37;;
5801;SDS011;2927;49.366;8.530;2023-06-26T04:24:10;10.13;;;7.57;;
5801;SDS011;2927;49.366;8.530;2023-06-26T04:26:36;11.27;;;7.97;;
5801;SDS011;2927;49.366;8.530;2023-06-26T04:29:02;9.87;;;7.73;;
5801;SDS011;2927;49.366;8.530;2023-06-26T04:31:28;10.20;;;8.10;;
5801;SDS011;2927;49.366;8.530;2023-06-26T04:33:54;8.27;;;7.47;;
5801;SDS011;2927;49.366;8.530;2023-06-26T04:36:20;15.40;;;8.33;;
5801;SDS011;2927;49.366;8.530;2023-06-26T04:38:46;11.90;;;6.77;;
5801;SDS011;2927;49.366;8.530;2023-06-26T04:41:13;11.73;;;7.60;;
5801;SDS011;2927;49.366;8.530;2023-06-26T04:43:39;11.87;;;7.20;;
5801;SDS011;2927;49.366;8.530;2023-06-26T04:46:04;11.23;;;7.87;;
5801;SDS011;2927;49.366;8.530;2023-06-26T04:48:31;11.33;;;8.20;;
5801;SDS011;2927;49.366;8.530;2023-06-26T04:50:57;9.27;;;7.23;;
5801;SDS011;2927;49.366;8.530;2023-06-26T04:53:24;10.83;;;7.00;;
5801;SDS011;2927;49.366;8.530;2023-06-26T04:55:50;30.93;;;7.90;;
5801;SDS011;2927;49.366;8.530;2023-06-26T04:58:16;14.33;;;9.70;;
5801;SDS011;2927;49.366;8.530;2023-06-26T05:00:42;11.23;;;7.90;;
5801;SDS011;2927;49.366;8.530;2023-06-26T05:03:09;13.43;;;8.60;;
5801;SDS011;2927;49.366;8.530;2023-06-26T05:05:36;11.50;;;8.90;;
5801;SDS011;2927;49.366;8.530;2023-06-26T05:08:12;13.77;;;9.33;;
5801;SDS011;2927;49.366;8.530;2023-06-26T05:10:48;10.97;;;8.40;;
5801;SDS011;2927;49.366;8.530;2023-06-26T05:13:14;9.60;;;7.70;;
5801;SDS011;2927;49.366;8.530;2023-06-26T05:15:42;11.67;;;9.50;;
5801;SDS011;2927;49.366;8.530;2023-06-26T05:18:09;9.83;;;8.20;;
5801;SDS011;2927;49.366;8.530;2023-06-26T05:20:35;11.90;;;9.60;;
5801;SDS011;2927;49.366;8.530;2023-06-26T05:23:01;19.10;;;9.00;;
5801;SDS011;2927;49.366;8.530;2023-06-26T05:25:29;11.13;;;8.57;;
5801;SDS011;2927;49.366;8.530;2023-06-26T05:27:55;12.13;;;8.67;;
5801;SDS011;2927;49.366;8.530;2023-06-26T05:30:22;15.13;;;9.70;;
5801;SDS011;2927;49.366;8.530;2023-06-26T05:32:50;13.67;;;9.10;;
5801;SDS011;2927;49.366;8.530;2023-06-26T05:35:16;15.27;;;8.70;;
5801;SDS011;2927;49.366;8.530;2023-06-26T05:37:43;9.97;;;8.40;;
5801;SDS011;2927;49.366;8.530;2023-06-26T05:40:09;10.60;;;8.60;;
5801;SDS011;2927;49.366;8.530;2023-06-26T05:42:35;15.43;;;9.90;;
5801;SDS011;2927;49.366;8.530;2023-06-26T05:45:01;14.07;;;9.70;;
5801;SDS011;2927;49.366;8.530;2023-06-26T05:47:27;15.07;;;9.27;;
5801;SDS011;2927;49.366;8.530;2023-06-26T05:49:52;11.33;;;8.50;;
5801;SDS011;2927;49.366;8.530;2023-06-26T05:52:18;13.10;;;9.63;;
5801;SDS011;2927;49.366;8.530;2023-06-26T05:54:44;11.53;;;9.03;;
5801;SDS011;2927;49.366;8.530;2023-06-26T05:57:09;10.87;;;9.30;;
5801;SDS011;2927;49.366;8.530;2023-06-26T05:59:37;12.10;;;8.90;;
5801;SDS011;2927;49.366;8.530;2023-06-26T06:02:05;11.37;;;9.20;;
5801;SDS011;2927;49.366;8.530;2023-06-26T06:04:31;13.13;;;7.37;;
5801;SDS011;2927;49.366;8.530;2023-06-26T06:06:56;12.30;;;8.93;;
5801;SDS011;2927;49.366;8.530;2023-06-26T06:09:22;10.47;;;9.30;;
5801;SDS011;2927;49.366;8.530;2023-06-26T06:11:47;9.13;;;8.23;;
5801;SDS011;2927;49.366;8.530;2023-06-26T06:14:13;15.80;;;9.13;;
5801;SDS011;2927;49.366;8.530;2023-06-26T06:16:38;10.48;;;9.38;;
5801;SDS011;2927;49.366;8.530;2023-06-26T06:19:04;9.63;;;8.63;;
5801;SDS011;2927;49.366;8.530;2023-06-26T06:21:31;10.68;;;8.20;;
5801;SDS011;2927;49.366;8.530;2023-06-26T06:23:57;9.25;;;8.35;;
5801;SDS011;2927;49.366;8.530;2023-06-26T06:26:22;11.05;;;9.20;;
5801;SDS011;2927;49.366;8.530;2023-06-26T06:28:48;10.15;;;8.80;;
5801;SDS011;2927;49.366;8.530;2023-06-26T06:31:14;8.63;;;7.93;;
5801;SDS011;2927;49.366;8.530;2023-06-26T06:33:39;14.15;;;8.95;;
5801;SDS011;2927;49.366;8.530;2023-06-26T06:36:05;9.95;;;8.77;;
5801;SDS011;2927;49.366;8.530;2023-06-26T06:38:30;8.93;;;8.23;;
5801;SDS011;2927;49.366;8.530;2023-06-26T06:40:56;9.48;;;7.63;;
5801;SDS011;2927;49.366;8.530;2023-06-26T06:43:22;8.43;;;7.60;;
5801;SDS011;2927;49.366;8.530;2023-06-26T06:45:47;8.80;;;7.90;;
5801;SDS011;2927;49.366;8.530;2023-06-26T06:48:13;8.50;;;7.68;;
5801;SDS011;2927;49.366;8.530;2023-06-26T06:50:39;10.43;;;7.75;;
5801;SDS011;2927;49.366;8.530;2023-06-26T06:53:04;9.95;;;8.38;;
5801;SDS011;2927;49.366;8.530;2023-06-26T06:55:30;9.48;;;7.15;;
5801;SDS011;2927;49.366;8.530;2023-06-26T06:57:55;9.25;;;7.82;;
5801;SDS011;2927;49.366;8.530;2023-06-26T07:00:21;9.23;;;7.90;;
5801;SDS011;2927;49.366;8.530;2023-06-26T07:02:46;8.68;;;7.28;;
5801;SDS011;2927;49.366;8.530;2023-06-26T07:05:12;7.68;;;6.97;;
5801;SDS011;2927;49.366;8.530;2023-06-26T07:07:38;7.93;;;7.22;;
5801;SDS011;2927;49.366;8.530;2023-06-26T07:10:05;8.52;;;7.65;;
5801;SDS011;2927;49.366;8.530;2023-06-26T07:12:35;7.72;;;7.03;;
5801;SDS011;2927;49.366;8.530;2023-06-26T07:15:02;11.52;;;8.52;;
5801;SDS011;2927;49.366;8.530;2023-06-26T07:17:29;8.85;;;8.05;;
5801;SDS011;2927;49.366;8.530;2023-06-26T07:19:58;7.57;;;6.95;;
5801;SDS011;2927;49.366;8.530;2023-06-26T07:22:24;8.90;;;8.10;;
5801;SDS011;2927;49.366;8.530;2023-06-26T07:24:50;7.57;;;6.95;;
5801;SDS011;2927;49.366;8.530;2023-06-26T07:27:15;8.43;;;7.60;;
5801;SDS011;2927;49.366;8.530;2023-06-26T07:29:43;8.13;;;7.43;;
5801;SDS011;2927;49.366;8.530;2023-06-26T07:32:08;8.75;;;7.78;;
5801;SDS011;2927;49.366;8.530;2023-06-26T07:34:34;8.27;;;7.47;;
5801;SDS011;2927;49.366;8.530;2023-06-26T07:37:00;7.85;;;7.25;;
5801;SDS011;2927;49.366;8.530;2023-06-26T07:39:25;8.40;;;7.72;;
5801;SDS011;2927;49.366;8.530;2023-06-26T07:41:51;8.93;;;6.97;;
5801;SDS011;2927;49.366;8.530;2023-06-26T07:44:16;10.30;;;7.95;;
5801;SDS011;2927;49.366;8.530;2023-06-26T07:46:42;9.10;;;8.20;;
5801;SDS011;2927;49.366;8.530;2023-06-26T07:49:09;8.90;;;7.85;;
5801;SDS011;2927;49.366;8.530;2023-06-26T07:51:35;7.97;;;7.10;;
5801;SDS011;2927;49.366;8.530;2023-06-26T07:54:01;11.25;;;8.25;;
5801;SDS011;2927;49.366;8.530;2023-06-26T07:56:27;8.95;;;8.05;;
5801;SDS011;2927;49.366;8.530;2023-06-26T07:58:52;7.50;;;6.50;;
5801;SDS011;2927;49.366;8.530;2023-06-26T08:01:18;7.88;;;7.15;;
5801;SDS011;2927;49.366;8.530;2023-06-26T08:03:43;8.13;;;7.18;;
5801;SDS011;2927;49.366;8.530;2023-06-26T08:06:09;7.80;;;6.85;;
5801;SDS011;2927;49.366;8.530;2023-06-26T08:08:35;6.57;;;6.10;;
5801;SDS011;2927;49.366;8.530;2023-06-26T08:11:00;8.35;;;6.97;;
5801;SDS011;2927;49.366;8.530;2023-06-26T08:13:26;7.57;;;6.65;;
5801;SDS011;2927;49.366;8.530;2023-06-26T08:15:51;7.43;;;6.82;;
5801;SDS011;2927;49.366;8.530;2023-06-26T08:18:18;9.93;;;5.93;;
5801;SDS011;2927;49.366;8.530;2023-06-26T08:20:43;6.93;;;6.32;;
5801;SDS011;2927;49.366;8.530;2023-06-26T08:23:09;6.68;;;6.18;;
5801;SDS011;2927;49.366;8.530;2023-06-26T08:25:34;6.45;;;5.93;;
5801;SDS011;2927;49.366;8.530;2023-06-26T08:28:00;7.93;;;6.20;;
5801;SDS011;2927;49.366;8.530;2023-06-26T08:30:25;7.05;;;6.45;;
5801;SDS011;2927;49.366;8.530;2023-06-26T08:32:53;7.45;;;6.50;;
5801;SDS011;2927;49.366;8.530;2023-06-26T08:35:20;8.00;;;7.30;;
5801;SDS011;2927;49.366;8.530;2023-06-26T08:37:46;7.32;;;6.47;;
5801;SDS011;2927;49.366;8.530;2023-06-26T08:40:11;6.68;;;6.13;;
5801;SDS011;2927;49.366;8.530;2023-06-26T08:42:41;8.60;;;6.20;;
5801;SDS011;2927;49.366;8.530;2023-06-26T08:45:06;8.10;;;7.00;;
5801;SDS011;2927;49.366;8.530;2023-06-26T08:47:33;8.18;;;7.35;;
5801;SDS011;2927;49.366;8.530;2023-06-26T08:50:06;8.27;;;7.50;;
5801;SDS011;2927;49.366;8.530;2023-06-26T08:52:35;7.30;;;6.60;;
5801;SDS011;2927;49.366;8.530;2023-06-26T08:55:06;10.43;;;7.47;;
5801;SDS011;2927;49.366;8.530;2023-06-26T08:57:35;7.80;;;7.03;;
5801;SDS011;2927;49.366;8.530;2023-06-26T09:00:02;7.22;;;6.00;;
5801;SDS011;2927;49.366;8.530;2023-06-26T09:02:28;14.52;;;6.95;;
5801;SDS011;2927;49.366;8.530;2023-06-26T09:04:53;7.97;;;6.85;;
5801;SDS011;2927;49.366;8.530;2023-06-26T09:07:19;7.72;;;7.07;;
5801;SDS011;2927;49.366;8.530;2023-06-26T09:09:45;6.80;;;6.28;;
5801;SDS011;2927;49.366;8.530;2023-06-26T09:12:10;8.75;;;6.72;;
5801;SDS011;2927;49.366;8.530;2023-06-26T09:14:36;6.55;;;5.97;;
5801;SDS011;2927;49.366;8.530;2023-06-26T09:17:03;6.95;;;6.45;;
5801;SDS011;2927;49.366;8.530;2023-06-26T09:19:29;7.03;;;6.30;;
5801;SDS011;2927;49.366;8.530;2023-06-26T09:21:54;5.07;;;4.78;;
5801;SDS011;2927;49.366;8.530;2023-06-26T09:24:21;5.80;;;5.30;;
5801;SDS011;2927;49.366;8.530;2023-06-26T09:26:48;5.93;;;5.43;;
5801;SDS011;2927;49.366;8.530;2023-06-26T09:29:14;5.35;;;4.88;;
5801;SDS011;2927;49.366;8.530;2023-06-26T09:31:42;5.22;;;4.93;;
5801;SDS011;2927;49.366;8.530;2023-06-26T09:34:08;5.57;;;5.28;;
5801;SDS011;2927;49.366;8.530;2023-06-26T09:36:35;9.02;;;5.25;;
5801;SDS011;2927;49.366;8.530;2023-06-26T09:39:05;5.63;;;5.32;;
5801;SDS011;2927;49.366;8.530;2023-06-26T09:41:35;6.25;;;5.10;;
5801;SDS011;2927;49.366;8.530;2023-06-26T09:44:06;7.75;;;4.72;;
5801;SDS011;2927;49.366;8.530;2023-06-26T09:46:32;6.68;;;3.97;;
5801;SDS011;2927;49.366;8.530;2023-06-26T09:49:02;4.85;;;4.65;;
5801;SDS011;2927;49.366;8.530;2023-06-26T09:51:39;5.30;;;5.00;;
5801;SDS011;2927;49.366;8.530;2023-06-26T09:54:06;6.07;;;5.60;;
5801;SDS011;2927;49.366;8.530;2023-06-26T09:56:32;5.18;;;4.88;;
5801;SDS011;2927;49.366;8.530;2023-06-26T09:58:59;5.57;;;5.07;;
5801;SDS011;2927;49.366;8.530;2023-06-26T10:01:29;4.97;;;4.78;;
5801;SDS011;2927;49.366;8.530;2023-06-26T10:03:56;5.15;;;4.85;;
5801;SDS011;2927;49.366;8.530;2023-06-26T10:06:24;5.38;;;5.18;;
5801;SDS011;2927;49.366;8.530;2023-06-26T10:08:54;8.35;;;4.97;;
5801;SDS011;2927;49.366;8.530;2023-06-26T10:11:22;5.40;;;4.97;;
5801;SDS011;2927;49.366;8.530;2023-06-26T10:13:53;5.88;;;5.47;;
5801;SDS011;2927;49.366;8.530;2023-06-26T10:16:23;5.03;;;4.63;;
5801;SDS011;2927;49.366;8.530;2023-06-26T10:18:56;4.82;;;4.72;;
5801;SDS011;2927;49.366;8.530;2023-06-26T10:21:26;5.85;;;5.40;;
5801;SDS011;2927;49.366;8.530;2023-06-26T10:23:54;5.38;;;5.18;;
5801;SDS011;2927;49.366;8.530;2023-06-26T10:26:22;5.43;;;5.07;;
5801;SDS011;2927;49.366;8.530;2023-06-26T10:28:49;8.35;;;5.55;;
5801;SDS011;2927;49.366;8.530;2023-06-26T10:31:18;6.60;;;6.05;;
5801;SDS011;2927;49.366;8.530;2023-06-26T10:33:47;6.43;;;5.85;;
5801;SDS011;2927;49.366;8.530;2023-06-26T10:36:14;6.05;;;5.68;;
5801;SDS011;2927;49.366;8.530;2023-06-26T10:38:53;6.15;;;5.70;;
5801;SDS011;2927;49.366;8.530;2023-06-26T10:41:21;7.68;;;5.60;;
5801;SDS011;2927;49.366;8.530;2023-06-26T10:46:51;5.68;;;5.28;;
5801;SDS011;2927;49.366;8.530;2023-06-26T10:49:24;6.60;;;5.95;;
5801;SDS011;2927;49.366;8.530;2023-06-26T10:51:53;7.22;;;6.63;;
5801;SDS011;2927;49.366;8.530;2023-06-26T10:54:20;7.38;;;6.78;;
5801;SDS011;2927;49.366;8.530;2023-06-26T10:56:48;7.60;;;6.75;;
5801;SDS011;2927;49.366;8.530;2023-06-26T11:01:41;9.65;;;6.35;;
5801;SDS011;2927;49.366;8.530;2023-06-26T11:04:08;6.97;;;6.43;;
5801;SDS011;2927;49.366;8.530;2023-06-26T11:06:35;7.82;;;6.93;;
5801;SDS011;2927;49.366;8.530;2023-06-26T11:14:29;7.25;;;6.10;;
5801;SDS011;2927;49.366;8.530;2023-06-26T11:16:56;8.68;;;6.93;;
5801;SDS011;2927;49.366;8.530;2023-06-26T11:19:22;10.45;;;6.82;;
5801;SDS011;2927;49.366;8.530;2023-06-26T11:21:51;6.45;;;5.90;;
5801;SDS011;2927;49.366;8.530;2023-06-26T11:24:17;7.82;;;6.55;;
5801;SDS011;2927;49.366;8.530;2023-06-26T11:26:44;14.65;;;6.65;;
5801;SDS011;2927;49.366;8.530;2023-06-26T11:29:10;7.75;;;6.90;;
5801;SDS011;2927;49.366;8.530;2023-06-26T11:31:37;6.95;;;6.45;;
5801;SDS011;2927;49.366;8.530;2023-06-26T11:34:05;7.80;;;6.28;;
5801;SDS011;2927;49.366;8.530;2023-06-26T11:36:36;10.90;;;6.15;;
5801;SDS011;2927;49.366;8.530;2023-06-26T11:39:03;6.53;;;6.03;;
5801;SDS011;2927;49.366;8.530;2023-06-26T11:41:31;6.47;;;5.88;;
5801;SDS011;2927;49.366;8.530;2023-06-26T11:44:01;7.53;;;6.55;;
5801;SDS011;2927;49.366;8.530;2023-06-26T11:46:28;9.95;;;6.80;;
5801;SDS011;2927;49.366;8.530;2023-06-26T11:48:54;6.30;;;5.70;;
5801;SDS011;2927;49.366;8.530;2023-06-26T11:51:19;7.32;;;6.63;;
5801;SDS011;2927;49.366;8.530;2023-06-26T11:53:46;6.97;;;6.43;;
5801;SDS011;2927;49.366;8.530;2023-06-26T11:56:13;7.20;;;6.50;;
5801;SDS011;2927;49.366;8.530;2023-06-26T12:04:02;8.30;;;5.60;;
5801;SDS011;2927;49.366;8.530;2023-06-26T12:06:29;10.88;;;5.13;;
5801;SDS011;2927;49.366;8.530;2023-06-26T12:08:57;7.38;;;5.40;;
5801;SDS011;2927;49.366;8.530;2023-06-26T12:11:25;5.78;;;5.22;;
5801;SDS011;2927;49.366;8.530;2023-06-26T12:13:52;5.20;;;4.70;;
5801;SDS011;2927;49.366;8.530;2023-06-26T12:16:18;5.15;;;4.75;;
5801;SDS011;2927;49.366;8.530;2023-06-26T12:18:44;6.65;;;5.55;;
5801;SDS011;2927;49.366;8.530;2023-06-26T12:21:27;5.20;;;4.80;;
5801;SDS011;2927;49.366;8.530;2023-06-26T12:23:59;5.18;;;4.78;;
5801;SDS011;2927;49.366;8.530;2023-06-26T12:26:25;4.78;;;4.45;;
5801;SDS011;2927;49.366;8.530;2023-06-26T12:28:52;5.65;;;5.15;;
5801;SDS011;2927;49.366;8.530;2023-06-26T12:31:19;7.18;;;4.15;;
5801;SDS011;2927;49.366;8.530;2023-06-26T12:33:46;9.20;;;4.05;;
5801;SDS011;2927;49.366;8.530;2023-06-26T12:36:12;7.88;;;4.72;;
5801;SDS011;2927;49.366;8.530;2023-06-26T12:38:38;8.65;;;5.32;;
5801;SDS011;2927;49.366;8.530;2023-06-26T12:41:05;8.90;;;3.90;;
5801;SDS011;2927;49.366;8.530;2023-06-26T12:43:37;5.32;;;4.35;;
5801;SDS011;2927;49.366;8.530;2023-06-26T12:46:04;6.75;;;4.80;;
5801;SDS011;2927;49.366;8.530;2023-06-26T12:48:39;7.95;;;5.30;;
5801;SDS011;2927;49.366;8.530;2023-06-26T12:51:16;5.07;;;4.57;;
5801;SDS011;2927;49.366;8.530;2023-06-26T12:53:42;6.20;;;4.93;;
5801;SDS011;2927;49.366;8.530;2023-06-26T12:56:08;4.57;;;4.10;;
5801;SDS011;2927;49.366;8.530;2023-06-26T12:58:35;4.72;;;4.38;;
5801;SDS011;2927;49.366;8.530;2023-06-26T13:01:05;4.95;;;4.45;;
5801;SDS011;2927;49.366;8.530;2023-06-26T13:03:39;6.03;;;4.60;;
5801;SDS011;2927;49.366;8.530;2023-06-26T13:06:08;9.90;;;5.30;;
5801;SDS011;2927;49.366;8.530;2023-06-26T13:08:34;5.35;;;4.90;;
5801;SDS011;2927;49.366;8.530;2023-06-26T13:11:00;5.43;;;4.50;;
5801;SDS011;2927;49.366;8.530;2023-06-26T13:13:25;6.32;;;4.90;;
5801;SDS011;2927;49.366;8.530;2023-06-26T13:15:51;10.60;;;5.70;;
5801;SDS011;2927;49.366;8.530;2023-06-26T13:18:16;6.38;;;5.65;;
5801;SDS011;2927;49.366;8.530;2023-06-26T13:20:42;7.70;;;5.70;;
5801;SDS011;2927;49.366;8.530;2023-06-26T13:23:07;6.80;;;6.20;;
5801;SDS011;2927;49.366;8.530;2023-06-26T13:25:33;7.55;;;6.85;;
5801;SDS011;2927;49.366;8.530;2023-06-26T13:27:59;7.65;;;6.95;;
5801;SDS011;2927;49.366;8.530;2023-06-26T13:30:25;15.15;;;8.35;;
5801;SDS011;2927;49.366;8.530;2023-06-26T13:32:50;8.15;;;7.00;;
5801;SDS011;2927;49.366;8.530;2023-06-26T13:35:16;17.48;;;7.90;;
5801;SDS011;2927;49.366;8.530;2023-06-26T13:37:41;9.10;;;8.20;;
5801;SDS011;2927;49.366;8.530;2023-06-26T13:40:07;9.93;;;8.82;;
5801;SDS011;2927;49.366;8.530;2023-06-26T13:42:33;11.75;;;8.98;;
5801;SDS011;2927;49.366;8.530;2023-06-26T13:45:00;9.15;;;8.32;;
5801;SDS011;2927;49.366;8.530;2023-06-26T13:47:25;11.10;;;8.73;;
5801;SDS011;2927;49.366;8.530;2023-06-26T13:49:51;10.52;;;9.50;;
5801;SDS011;2927;49.366;8.530;2023-06-26T13:52:16;10.15;;;9.07;;
5801;SDS011;2927;49.366;8.530;2023-06-26T13:54:42;11.55;;;9.80;;
5801;SDS011;2927;49.366;8.530;2023-06-26T13:57:08;13.15;;;9.20;;
5801;SDS011;2927;49.366;8.530;2023-06-26T13:59:34;8.65;;;7.78;;
5801;SDS011;2927;49.366;8.530;2023-06-26T14:02:01;10.95;;;5.82;;
5801;SDS011;2927;49.366;8.530;2023-06-26T14:04:27;10.60;;;7.32;;
5801;SDS011;2927;49.366;8.530;2023-06-26T14:06:52;9.23;;;7.18;;
5801;SDS011;2927;49.366;8.530;2023-06-26T14:09:18;12.38;;;7.40;;
5801;SDS011;2927;49.366;8.530;2023-06-26T14:11:44;10.05;;;5.45;;
5801;SDS011;2927;49.366;8.530;2023-06-26T14:14:10;14.15;;;5.30;;
5801;SDS011;2927;49.366;8.530;2023-06-26T14:16:35;51.63;;;8.52;;
5801;SDS011;2927;49.366;8.530;2023-06-26T14:19:01;17.85;;;4.90;;
5801;SDS011;2927;49.366;8.530;2023-06-26T14:21:26;7.40;;;4.05;;
5801;SDS011;2927;49.366;8.530;2023-06-26T14:23:53;4.85;;;2.45;;
5801;SDS011;2927;49.366;8.530;2023-06-26T14:26:21;5.90;;;3.08;;
5801;SDS011;2927;49.366;8.530;2023-06-26T14:28:47;6.55;;;2.95;;
5801;SDS011;2927;49.366;8.530;2023-06-26T14:31:13;7.05;;;3.25;;
5801;SDS011;2927;49.366;8.530;2023-06-26T14:33:38;7.85;;;2.20;;
5801;SDS011;2927;49.366;8.530;2023-06-26T14:36:04;5.05;;;2.58;;
5801;SDS011;2927;49.366;8.530;2023-06-26T14:38:29;11.75;;;3.00;;
5801;SDS011;2927;49.366;8.530;2023-06-26T14:40:55;3.67;;;2.80;;
5801;SDS011;2927;49.366;8.530;2023-06-26T14:43:21;2.95;;;2.45;;
5801;SDS011;2927;49.366;8.530;2023-06-26T14:45:46;3.47;;;2.45;;
5801;SDS011;2927;49.366;8.530;2023-06-26T14:48:12;3.50;;;2.13;;
5801;SDS011;2927;49.366;8.530;2023-06-26T14:50:38;4.80;;;2.42;;
5801;SDS011;2927;49.366;8.530;2023-06-26T14:53:03;8.05;;;1.83;;
5801;SDS011;2927;49.366;8.530;2023-06-26T14:55:29;5.53;;;2.33;;
5801;SDS011;2927;49.366;8.530;2023-06-26T14:57:54;5.95;;;2.22;;
5801;SDS011;2927;49.366;8.530;2023-06-26T15:00:20;3.92;;;1.90;;
5801;SDS011;2927;49.366;8.530;2023-06-26T15:02:46;8.57;;;2.20;;
5801;SDS011;2927;49.366;8.530;2023-06-26T15:05:11;7.10;;;2.17;;
5801;SDS011;2927;49.366;8.530;2023-06-26T15:07:37;3.55;;;1.92;;
5801;SDS011;2927;49.366;8.530;2023-06-26T15:10:02;4.65;;;2.50;;
5801;SDS011;2927;49.366;8.530;2023-06-26T15:12:28;3.55;;;1.77;;
5801;SDS011;2927;49.366;8.530;2023-06-26T15:14:54;2.90;;;2.03;;
5801;SDS011;2927;49.366;8.530;2023-06-26T15:17:20;9.55;;;1.98;;
5801;SDS011;2927;49.366;8.530;2023-06-26T15:19:45;15.40;;;2.67;;
5801;SDS011;2927;49.366;8.530;2023-06-26T15:22:11;4.75;;;1.95;;
5801;SDS011;2927;49.366;8.530;2023-06-26T15:24:36;6.25;;;2.10;;
5801;SDS011;2927;49.366;8.530;2023-06-26T15:27:02;7.32;;;2.13;;
5801;SDS011;2927;49.366;8.530;2023-06-26T15:29:27;2.08;;;1.98;;
5801;SDS011;2927;49.366;8.530;2023-06-26T15:31:53;7.40;;;2.70;;
5801;SDS011;2927;49.366;8.530;2023-06-26T15:34:19;8.43;;;2.83;;
5801;SDS011;2927;49.366;8.530;2023-06-26T15:36:44;4.00;;;2.28;;